FACT

Cape Town International Airport

Cape Town, South Africa
METAR FACT 191100Z 30014KT 9999 SCT030 24/15 Q1016 NOSIG
Observed Flight Rules
Dec-19 @ 11:00 UTC (39 minutes ago) Visual Flight Rules
Wind Visibility Clouds
300° at 14 knots 10,000+ meters
  • Scattered at 3,000' AGL
Temperatures Readings
Current 24°C / 75°F
Dewpoint 15°C / 59°F
Humidity 57%
Altimeter 30" Hg
Pressure 1016 hPa
Elevation 42
METAR FACT 191100Z 30014KT 9999 SCT030 24/15 Q1016 NOSIG
Observed Flight Rules
Dec-19 @ 11:00 UTC
(39 minutes ago)
VFR
Wind Visibility
300° at 14 knots 10,000+ meters
Clouds
  • Scattered at 3,000' AGL
Temperature Dewpoint
24°C / 75°F 15°C / 59°F
Humidity Altimeter Pressure
57% 30" Hg 1016 hPa